Time;durP1;ratioP1;P1;durP2;ratioP2;P2;SDS_P1;SDS_P2;PMS_P1;PMS_P2;Temp;Humidity;BMP_temperature;BMP_pressure;BME280_temperature;BME280_humidity;BME280_pressure;Samples;Min_cycle;Max_cycle;Signal;HPM_P1;HPM_P2
2019/10/20 00:00:00;;;;;;;47.95;30.6;;;;;;;8.04;95.7207;94570.06;;;;
2019/10/20 00:01:01;;;;;;;47.95;30.6;;;;;;;8.04;95.7207;94570.06;;;;
2019/10/20 00:02:02;;;;;;;47.95;30.6;;;;;;;8.04;95.7207;94570.06;;;;
2019/10/20 00:03:03;;;;;;;47.95;30.6;;;;;;;8.04;95.7207;94570.06;;;;
2019/10/20 00:04:05;;;;;;;47.95;30.6;;;;;;;8.04;95.7207;94570.06;;;;
2019/10/20 00:05:06;;;;;;;47.95;30.6;;;;;;;8.04;95.7207;94570.06;;;;
2019/10/20 00:06:07;;;;;;;47.95;30.6;;;;;;;8.04;95.7207;94570.06;;;;
2019/10/20 00:07:08;;;;;;;47.95;30.6;;;;;;;8.04;95.7207;94570.06;;;;
2019/10/20 00:08:10;;;;;;;47.95;30.6;;;;;;;8.04;95.7207;94570.06;;;;
2019/10/20 00:09:11;;;;;;;47.95;30.6;;;;;;;8.04;95.7207;94570.06;;;;
2019/10/20 00:10:12;;;;;;;45.85001;30.2;;;;;;;7.91;96.04199;94577.86;;;;
2019/10/20 00:11:13;;;;;;;45.85001;30.2;;;;;;;7.91;96.04199;94577.86;;;;
2019/10/20 00:12:15;;;;;;;45.85001;30.2;;;;;;;7.91;96.04199;94577.86;;;;
2019/10/20 00:13:16;;;;;;;45.85001;30.2;;;;;;;7.91;96.04199;94577.86;;;;
2019/10/20 00:14:17;;;;;;;45.85001;30.2;;;;;;;7.91;96.04199;94577.86;;;;
2019/10/20 00:15:18;;;;;;;45.85001;30.2;;;;;;;7.91;96.04199;94577.86;;;;
2019/10/20 00:16:19;;;;;;;45.85001;30.2;;;;;;;7.91;96.04199;94577.86;;;;
2019/10/20 00:17:20;;;;;;;45.85001;30.2;;;;;;;7.91;96.04199;94577.86;;;;
2019/10/20 00:18:22;;;;;;;45.85001;30.2;;;;;;;7.91;96.04199;94577.86;;;;
2019/10/20 00:19:23;;;;;;;45.85001;30.2;;;;;;;7.91;96.04199;94577.86;;;;
2019/10/20 00:20:24;;;;;;;45.85001;30.2;;;;;;;7.91;96.04199;94577.86;;;;
2019/10/20 00:21:25;;;;;;;48.09999;30.75;;;;;;;7.76;96.23047;94575.24;;;;
2019/10/20 00:22:26;;;;;;;48.09999;30.75;;;;;;;7.76;96.23047;94575.24;;;;
2019/10/20 00:23:27;;;;;;;48.09999;30.75;;;;;;;7.76;96.23047;94575.24;;;;
2019/10/20 00:24:28;;;;;;;48.09999;30.75;;;;;;;7.76;96.23047;94575.24;;;;
2019/10/20 00:25:30;;;;;;;48.09999;30.75;;;;;;;7.76;96.23047;94575.24;;;;
2019/10/20 00:26:32;;;;;;;48.09999;30.75;;;;;;;7.76;96.23047;94575.24;;;;
2019/10/20 00:27:33;;;;;;;48.09999;30.75;;;;;;;7.76;96.23047;94575.24;;;;
2019/10/20 00:28:34;;;;;;;48.09999;30.75;;;;;;;7.76;96.23047;94575.24;;;;
2019/10/20 00:29:35;;;;;;;48.09999;30.75;;;;;;;7.76;96.23047;94575.24;;;;
2019/10/20 00:30:36;;;;;;;48.09999;30.75;;;;;;;7.76;96.23047;94575.24;;;;
2019/10/20 00:31:48;;;;;;;42.95;29.25;;;;;;;7.71;96.44238;94564.9;;;;
2019/10/20 00:32:49;;;;;;;42.95;29.25;;;;;;;7.71;96.44238;94564.9;;;;
2019/10/20 00:33:50;;;;;;;42.95;29.25;;;;;;;7.71;96.44238;94564.9;;;;
2019/10/20 00:34:51;;;;;;;42.95;29.25;;;;;;;7.71;96.44238;94564.9;;;;
2019/10/20 00:35:52;;;;;;;42.95;29.25;;;;;;;7.71;96.44238;94564.9;;;;
2019/10/20 00:36:55;;;;;;;42.95;29.25;;;;;;;7.71;96.44238;94564.9;;;;
2019/10/20 00:37:56;;;;;;;42.95;29.25;;;;;;;7.71;96.44238;94564.9;;;;
2019/10/20 00:38:57;;;;;;;42.95;29.25;;;;;;;7.71;96.44238;94564.9;;;;
2019/10/20 00:39:58;;;;;;;42.95;29.25;;;;;;;7.71;96.44238;94564.9;;;;
2019/10/20 00:40:59;;;;;;;42.95;29.25;;;;;;;7.71;96.44238;94564.9;;;;
2019/10/20 00:42:00;;;;;;;42.95;29.25;;;;;;;7.71;96.44238;94564.9;;;;
2019/10/20 00:43:01;;;;;;;44.6;28.55;;;;;;;7.59;96.5498;94577.13;;;;
2019/10/20 00:44:03;;;;;;;44.6;28.55;;;;;;;7.59;96.5498;94577.13;;;;
2019/10/20 00:45:04;;;;;;;44.6;28.55;;;;;;;7.59;96.5498;94577.13;;;;
2019/10/20 00:46:06;;;;;;;44.6;28.55;;;;;;;7.59;96.5498;94577.13;;;;
2019/10/20 00:47:07;;;;;;;44.6;28.55;;;;;;;7.59;96.5498;94577.13;;;;
2019/10/20 00:48:09;;;;;;;44.6;28.55;;;;;;;7.59;96.5498;94577.13;;;;
2019/10/20 00:49:10;;;;;;;44.6;28.55;;;;;;;7.59;96.5498;94577.13;;;;
2019/10/20 00:50:11;;;;;;;44.6;28.55;;;;;;;7.59;96.5498;94577.13;;;;
2019/10/20 00:51:12;;;;;;;44.6;28.55;;;;;;;7.59;96.5498;94577.13;;;;
2019/10/20 00:52:13;;;;;;;44.6;28.55;;;;;;;7.59;96.5498;94577.13;;;;
2019/10/20 00:53:14;;;;;;;43.44999;28.6;;;;;;;7.51;96.78613;94574.27;;;;
2019/10/20 00:54:16;;;;;;;43.44999;28.6;;;;;;;7.51;96.78613;94574.27;;;;
2019/10/20 00:55:17;;;;;;;43.44999;28.6;;;;;;;7.51;96.78613;94574.27;;;;
2019/10/20 00:56:18;;;;;;;43.44999;28.6;;;;;;;7.51;96.78613;94574.27;;;;
2019/10/20 00:57:19;;;;;;;43.44999;28.6;;;;;;;7.51;96.78613;94574.27;;;;
2019/10/20 00:58:20;;;;;;;43.44999;28.6;;;;;;;7.51;96.78613;94574.27;;;;
2019/10/20 00:59:21;;;;;;;43.44999;28.6;;;;;;;7.51;96.78613;94574.27;;;;
2019/10/20 01:00:22;;;;;;;43.44999;28.6;;;;;;;7.51;96.78613;94574.27;;;;
2019/10/20 01:01:24;;;;;;;43.44999;28.6;;;;;;;7.51;96.78613;94574.27;;;;
2019/10/20 01:02:25;;;;;;;43.44999;28.6;;;;;;;7.51;96.78613;94574.27;;;;
2019/10/20 01:03:26;;;;;;;42.19999;27.4;;;;;;;7.36;96.84766;94566.78;;;;
2019/10/20 01:04:28;;;;;;;42.19999;27.4;;;;;;;7.36;96.84766;94566.78;;;;
2019/10/20 01:05:29;;;;;;;42.19999;27.4;;;;;;;7.36;96.84766;94566.78;;;;
2019/10/20 01:06:30;;;;;;;42.19999;27.4;;;;;;;7.36;96.84766;94566.78;;;;
2019/10/20 01:07:31;;;;;;;42.19999;27.4;;;;;;;7.36;96.84766;94566.78;;;;
2019/10/20 01:08:33;;;;;;;42.19999;27.4;;;;;;;7.36;96.84766;94566.78;;;;
2019/10/20 01:09:34;;;;;;;42.19999;27.4;;;;;;;7.36;96.84766;94566.78;;;;
2019/10/20 01:10:35;;;;;;;42.19999;27.4;;;;;;;7.36;96.84766;94566.78;;;;
2019/10/20 01:11:36;;;;;;;42.19999;27.4;;;;;;;7.36;96.84766;94566.78;;;;
2019/10/20 01:12:37;;;;;;;42.19999;27.4;;;;;;;7.36;96.84766;94566.78;;;;
2019/10/20 01:13:39;;;;;;;42.19999;27.4;;;;;;;7.36;96.84766;94566.78;;;;
2019/10/20 01:14:40;;;;;;;38.6;26.05;;;;;;;7.28;97.03125;94563.53;;;;
2019/10/20 01:15:41;;;;;;;38.6;26.05;;;;;;;7.28;97.03125;94563.53;;;;
2019/10/20 01:16:43;;;;;;;38.6;26.05;;;;;;;7.28;97.03125;94563.53;;;;
2019/10/20 01:17:44;;;;;;;38.6;26.05;;;;;;;7.28;97.03125;94563.53;;;;
2019/10/20 01:18:45;;;;;;;38.6;26.05;;;;;;;7.28;97.03125;94563.53;;;;
2019/10/20 01:19:47;;;;;;;38.6;26.05;;;;;;;7.28;97.03125;94563.53;;;;
2019/10/20 01:20:48;;;;;;;38.6;26.05;;;;;;;7.28;97.03125;94563.53;;;;
2019/10/20 01:21:49;;;;;;;38.6;26.05;;;;;;;7.28;97.03125;94563.53;;;;
2019/10/20 01:22:50;;;;;;;38.6;26.05;;;;;;;7.28;97.03125;94563.53;;;;
2019/10/20 01:23:52;;;;;;;38.6;26.05;;;;;;;7.28;97.03125;94563.53;;;;
2019/10/20 01:24:53;;;;;;;38.95;26.85;;;;;;;7.15;97.06543;94576.25;;;;
2019/10/20 01:25:54;;;;;;;38.95;26.85;;;;;;;7.15;97.06543;94576.25;;;;
2019/10/20 01:26:55;;;;;;;38.95;26.85;;;;;;;7.15;97.06543;94576.25;;;;
2019/10/20 01:27:57;;;;;;;38.95;26.85;;;;;;;7.15;97.06543;94576.25;;;;
2019/10/20 01:28:58;;;;;;;38.95;26.85;;;;;;;7.15;97.06543;94576.25;;;;
2019/10/20 01:29:59;;;;;;;38.95;26.85;;;;;;;7.15;97.06543;94576.25;;;;
2019/10/20 01:31:00;;;;;;;38.95;26.85;;;;;;;7.15;97.06543;94576.25;;;;
2019/10/20 01:32:01;;;;;;;38.95;26.85;;;;;;;7.15;97.06543;94576.25;;;;
2019/10/20 01:33:03;;;;;;;38.95;26.85;;;;;;;7.15;97.06543;94576.25;;;;
2019/10/20 01:34:04;;;;;;;38.95;26.85;;;;;;;7.15;97.06543;94576.25;;;;
2019/10/20 01:35:05;;;;;;;38.95;26.85;;;;;;;7.15;97.06543;94576.25;;;;
2019/10/20 01:36:10;;;;;;;39.6;25.2;;;;;;;7.08;97.25977;94567.08;;;;
2019/10/20 01:37:11;;;;;;;39.6;25.2;;;;;;;7.08;97.25977;94567.08;;;;
2019/10/20 01:38:12;;;;;;;39.6;25.2;;;;;;;7.08;97.25977;94567.08;;;;
2019/10/20 01:39:13;;;;;;;39.6;25.2;;;;;;;7.08;97.25977;94567.08;;;;
2019/10/20 01:40:15;;;;;;;39.6;25.2;;;;;;;7.08;97.25977;94567.08;;;;
2019/10/20 01:41:17;;;;;;;39.6;25.2;;;;;;;7.08;97.25977;94567.08;;;;
2019/10/20 01:42:19;;;;;;;39.6;25.2;;;;;;;7.08;97.25977;94567.08;;;;
2019/10/20 01:43:20;;;;;;;39.6;25.2;;;;;;;7.08;97.25977;94567.08;;;;
2019/10/20 01:44:52;;;;;;;39.6;25.2;;;;;;;7.08;97.25977;94567.08;;;;
2019/10/20 01:45:53;;;;;;;38.3;25.25;;;;;;;6.94;97.35449;94569.27;;;;
2019/10/20 01:46:54;;;;;;;38.3;25.25;;;;;;;6.94;97.35449;94569.27;;;;
2019/10/20 01:47:56;;;;;;;38.3;25.25;;;;;;;6.94;97.35449;94569.27;;;;
2019/10/20 01:48:58;;;;;;;38.3;25.25;;;;;;;6.94;97.35449;94569.27;;;;
2019/10/20 01:49:59;;;;;;;38.3;25.25;;;;;;;6.94;97.35449;94569.27;;;;
2019/10/20 01:51:00;;;;;;;38.3;25.25;;;;;;;6.94;97.35449;94569.27;;;;
2019/10/20 01:52:01;;;;;;;38.3;25.25;;;;;;;6.94;97.35449;94569.27;;;;
2019/10/20 01:53:03;;;;;;;38.3;25.25;;;;;;;6.94;97.35449;94569.27;;;;
2019/10/20 01:54:05;;;;;;;38.3;25.25;;;;;;;6.94;97.35449;94569.27;;;;
2019/10/20 01:55:06;;;;;;;38.3;25.25;;;;;;;6.94;97.35449;94569.27;;;;
2019/10/20 01:56:08;;;;;;;38.3;25.25;;;;;;;6.94;97.35449;94569.27;;;;
2019/10/20 01:57:09;;;;;;;36.95;24.9;;;;;;;6.89;97.49316;94563.23;;;;
2019/10/20 01:58:11;;;;;;;36.95;24.9;;;;;;;6.89;97.49316;94563.23;;;;
2019/10/20 01:59:12;;;;;;;36.95;24.9;;;;;;;6.89;97.49316;94563.23;;;;
2019/10/20 02:00:13;;;;;;;36.95;24.9;;;;;;;6.89;97.49316;94563.23;;;;
2019/10/20 02:01:20;;;;;;;36.95;24.9;;;;;;;6.89;97.49316;94563.23;;;;
2019/10/20 02:02:22;;;;;;;36.95;24.9;;;;;;;6.89;97.49316;94563.23;;;;
2019/10/20 02:03:23;;;;;;;36.95;24.9;;;;;;;6.89;97.49316;94563.23;;;;
2019/10/20 02:04:24;;;;;;;36.95;24.9;;;;;;;6.89;97.49316;94563.23;;;;
2019/10/20 02:05:25;;;;;;;36.95;24.9;;;;;;;6.89;97.49316;94563.23;;;;
2019/10/20 02:06:27;;;;;;;36.95;24.9;;;;;;;6.89;97.49316;94563.23;;;;
2019/10/20 02:07:28;;;;;;;40.80001;24.8;;;;;;;6.76;97.5166;94552.19;;;;
2019/10/20 02:08:29;;;;;;;40.80001;24.8;;;;;;;6.76;97.5166;94552.19;;;;
2019/10/20 02:09:31;;;;;;;40.80001;24.8;;;;;;;6.76;97.5166;94552.19;;;;
2019/10/20 02:10:32;;;;;;;40.80001;24.8;;;;;;;6.76;97.5166;94552.19;;;;
2019/10/20 02:11:33;;;;;;;40.80001;24.8;;;;;;;6.76;97.5166;94552.19;;;;
2019/10/20 02:12:34;;;;;;;40.80001;24.8;;;;;;;6.76;97.5166;94552.19;;;;
2019/10/20 02:13:35;;;;;;;40.80001;24.8;;;;;;;6.76;97.5166;94552.19;;;;
2019/10/20 02:14:37;;;;;;;40.80001;24.8;;;;;;;6.76;97.5166;94552.19;;;;
2019/10/20 02:15:38;;;;;;;40.80001;24.8;;;;;;;6.76;97.5166;94552.19;;;;
2019/10/20 02:16:39;;;;;;;40.80001;24.8;;;;;;;6.76;97.5166;94552.19;;;;
2019/10/20 02:17:40;;;;;;;40.8;25.95;;;;;;;6.7;97.68066;94560.36;;;;
2019/10/20 02:18:41;;;;;;;40.8;25.95;;;;;;;6.7;97.68066;94560.36;;;;
2019/10/20 02:19:42;;;;;;;40.8;25.95;;;;;;;6.7;97.68066;94560.36;;;;
2019/10/20 02:20:44;;;;;;;40.8;25.95;;;;;;;6.7;97.68066;94560.36;;;;
2019/10/20 02:21:45;;;;;;;40.8;25.95;;;;;;;6.7;97.68066;94560.36;;;;
2019/10/20 02:22:46;;;;;;;40.8;25.95;;;;;;;6.7;97.68066;94560.36;;;;
2019/10/20 02:23:47;;;;;;;40.8;25.95;;;;;;;6.7;97.68066;94560.36;;;;
2019/10/20 02:24:48;;;;;;;40.8;25.95;;;;;;;6.7;97.68066;94560.36;;;;
2019/10/20 02:25:49;;;;;;;40.8;25.95;;;;;;;6.7;97.68066;94560.36;;;;
2019/10/20 02:26:51;;;;;;;40.8;25.95;;;;;;;6.7;97.68066;94560.36;;;;
2019/10/20 02:27:52;;;;;;;40.8;25.95;;;;;;;6.7;97.68066;94560.36;;;;
2019/10/20 02:28:53;;;;;;;39.4;25.95;;;;;;;6.58;97.75;94577.36;;;;
2019/10/20 02:29:54;;;;;;;39.4;25.95;;;;;;;6.58;97.75;94577.36;;;;
2019/10/20 02:30:56;;;;;;;39.4;25.95;;;;;;;6.58;97.75;94577.36;;;;
2019/10/20 02:31:57;;;;;;;39.4;25.95;;;;;;;6.58;97.75;94577.36;;;;
2019/10/20 02:32:58;;;;;;;39.4;25.95;;;;;;;6.58;97.75;94577.36;;;;
2019/10/20 02:33:59;;;;;;;39.4;25.95;;;;;;;6.58;97.75;94577.36;;;;
2019/10/20 02:35:00;;;;;;;39.4;25.95;;;;;;;6.58;97.75;94577.36;;;;
2019/10/20 02:36:02;;;;;;;39.4;25.95;;;;;;;6.58;97.75;94577.36;;;;
2019/10/20 02:37:03;;;;;;;39.4;25.95;;;;;;;6.58;97.75;94577.36;;;;
2019/10/20 02:38:04;;;;;;;39.4;25.95;;;;;;;6.58;97.75;94577.36;;;;
2019/10/20 02:39:05;;;;;;;36.3;25.15;;;;;;;6.55;97.93066;94573.77;;;;
2019/10/20 02:40:07;;;;;;;36.3;25.15;;;;;;;6.55;97.93066;94573.77;;;;
2019/10/20 02:41:08;;;;;;;36.3;25.15;;;;;;;6.55;97.93066;94573.77;;;;
2019/10/20 02:42:09;;;;;;;36.3;25.15;;;;;;;6.55;97.93066;94573.77;;;;
2019/10/20 02:43:11;;;;;;;36.3;25.15;;;;;;;6.55;97.93066;94573.77;;;;
2019/10/20 02:44:12;;;;;;;36.3;25.15;;;;;;;6.55;97.93066;94573.77;;;;
2019/10/20 02:45:14;;;;;;;36.3;25.15;;;;;;;6.55;97.93066;94573.77;;;;
2019/10/20 02:46:16;;;;;;;36.3;25.15;;;;;;;6.55;97.93066;94573.77;;;;
2019/10/20 02:47:29;;;;;;;36.3;25.15;;;;;;;6.55;97.93066;94573.77;;;;
2019/10/20 02:48:40;;;;;;;36.3;25.15;;;;;;;6.55;97.93066;94573.77;;;;
2019/10/20 02:49:48;;;;;;;35.45;23.8;;;;;;;6.44;98.03223;94566.13;;;;
2019/10/20 02:50:50;;;;;;;35.45;23.8;;;;;;;6.44;98.03223;94566.13;;;;
2019/10/20 02:52:00;;;;;;;35.45;23.8;;;;;;;6.44;98.03223;94566.13;;;;
2019/10/20 02:53:04;;;;;;;35.45;23.8;;;;;;;6.44;98.03223;94566.13;;;;
2019/10/20 02:54:07;;;;;;;35.45;23.8;;;;;;;6.44;98.03223;94566.13;;;;
2019/10/20 02:55:10;;;;;;;35.45;23.8;;;;;;;6.44;98.03223;94566.13;;;;
2019/10/20 02:56:12;;;;;;;35.45;23.8;;;;;;;6.44;98.03223;94566.13;;;;
2019/10/20 02:57:22;;;;;;;35.45;23.8;;;;;;;6.44;98.03223;94566.13;;;;
2019/10/20 02:58:40;;;;;;;35.45;23.8;;;;;;;6.44;98.03223;94566.13;;;;
2019/10/20 03:00:02;;;;;;;41.90001;27.2;;;;;;;6.44;98.18164;94577.64;;;;
2019/10/20 03:01:05;;;;;;;41.90001;27.2;;;;;;;6.44;98.18164;94577.64;;;;
2019/10/20 03:02:07;;;;;;;41.90001;27.2;;;;;;;6.44;98.18164;94577.64;;;;
2019/10/20 03:03:17;;;;;;;41.90001;27.2;;;;;;;6.44;98.18164;94577.64;;;;
2019/10/20 03:04:18;;;;;;;41.90001;27.2;;;;;;;6.44;98.18164;94577.64;;;;
2019/10/20 03:05:19;;;;;;;41.90001;27.2;;;;;;;6.44;98.18164;94577.64;;;;
2019/10/20 03:06:22;;;;;;;41.90001;27.2;;;;;;;6.44;98.18164;94577.64;;;;
2019/10/20 03:07:23;;;;;;;41.90001;27.2;;;;;;;6.44;98.18164;94577.64;;;;
2019/10/20 03:08:24;;;;;;;41.90001;27.2;;;;;;;6.44;98.18164;94577.64;;;;
2019/10/20 03:09:25;;;;;;;41.90001;27.2;;;;;;;6.44;98.18164;94577.64;;;;
2019/10/20 03:10:26;;;;;;;41.90001;27.2;;;;;;;6.44;98.18164;94577.64;;;;
2019/10/20 03:11:27;;;;;;;44.95;29.3;;;;;;;6.44;98.29492;94561.69;;;;
2019/10/20 03:12:29;;;;;;;44.95;29.3;;;;;;;6.44;98.29492;94561.69;;;;
2019/10/20 03:13:30;;;;;;;44.95;29.3;;;;;;;6.44;98.29492;94561.69;;;;
2019/10/20 03:14:31;;;;;;;44.95;29.3;;;;;;;6.44;98.29492;94561.69;;;;
2019/10/20 03:15:32;;;;;;;44.95;29.3;;;;;;;6.44;98.29492;94561.69;;;;
2019/10/20 03:16:33;;;;;;;44.95;29.3;;;;;;;6.44;98.29492;94561.69;;;;
2019/10/20 03:17:34;;;;;;;44.95;29.3;;;;;;;6.44;98.29492;94561.69;;;;
2019/10/20 03:18:35;;;;;;;44.95;29.3;;;;;;;6.44;98.29492;94561.69;;;;
2019/10/20 03:19:37;;;;;;;44.95;29.3;;;;;;;6.44;98.29492;94561.69;;;;
2019/10/20 03:20:38;;;;;;;44.95;29.3;;;;;;;6.44;98.29492;94561.69;;;;
2019/10/20 03:21:39;;;;;;;43.4;28.7;;;;;;;6.52;98.5459;94555.98;;;;
2019/10/20 03:22:40;;;;;;;43.4;28.7;;;;;;;6.52;98.5459;94555.98;;;;
2019/10/20 03:23:41;;;;;;;43.4;28.7;;;;;;;6.52;98.5459;94555.98;;;;
2019/10/20 03:24:42;;;;;;;43.4;28.7;;;;;;;6.52;98.5459;94555.98;;;;
2019/10/20 03:25:43;;;;;;;43.4;28.7;;;;;;;6.52;98.5459;94555.98;;;;
2019/10/20 03:26:45;;;;;;;43.4;28.7;;;;;;;6.52;98.5459;94555.98;;;;
2019/10/20 03:27:46;;;;;;;43.4;28.7;;;;;;;6.52;98.5459;94555.98;;;;
2019/10/20 03:28:47;;;;;;;43.4;28.7;;;;;;;6.52;98.5459;94555.98;;;;
2019/10/20 03:29:48;;;;;;;43.4;28.7;;;;;;;6.52;98.5459;94555.98;;;;
2019/10/20 03:30:49;;;;;;;43.4;28.7;;;;;;;6.52;98.5459;94555.98;;;;
2019/10/20 03:31:50;;;;;;;43;28.1;;;;;;;6.51;98.45898;94573;;;;
2019/10/20 03:32:52;;;;;;;43;28.1;;;;;;;6.51;98.45898;94573;;;;
2019/10/20 03:33:53;;;;;;;43;28.1;;;;;;;6.51;98.45898;94573;;;;
2019/10/20 03:35:00;;;;;;;43;28.1;;;;;;;6.51;98.45898;94573;;;;
2019/10/20 03:36:02;;;;;;;43;28.1;;;;;;;6.51;98.45898;94573;;;;
2019/10/20 03:37:05;;;;;;;43;28.1;;;;;;;6.51;98.45898;94573;;;;
2019/10/20 03:42:19;;;;;;;43;28.1;;;;;;;6.51;98.45898;94573;;;;
2019/10/20 03:43:54;;;;;;;43.6;28.25;;;;;;;6.53;98.60059;94568.24;;;;
2019/10/20 03:45:13;;;;;;;43.6;28.25;;;;;;;6.53;98.60059;94568.24;;;;
2019/10/20 03:47:27;;;;;;;43.6;28.25;;;;;;;6.53;98.60059;94568.24;;;;
2019/10/20 03:48:56;;;;;;;43.6;28.25;;;;;;;6.53;98.60059;94568.24;;;;
2019/10/20 03:50:45;;;;;;;43.6;28.25;;;;;;;6.53;98.60059;94568.24;;;;
2019/10/20 03:52:03;;;;;;;43.6;28.25;;;;;;;6.53;98.60059;94568.24;;;;
2019/10/20 03:53:07;;;;;;;52.25;31.15;;;;;;;6.51;98.61719;94566.85;;;;
2019/10/20 03:54:43;;;;;;;52.25;31.15;;;;;;;6.51;98.61719;94566.85;;;;
2019/10/20 03:55:54;;;;;;;52.25;31.15;;;;;;;6.51;98.61719;94566.85;;;;
2019/10/20 03:57:15;;;;;;;52.25;31.15;;;;;;;6.51;98.61719;94566.85;;;;
2019/10/20 03:58:27;;;;;;;52.25;31.15;;;;;;;6.51;98.61719;94566.85;;;;
2019/10/20 03:59:39;;;;;;;52.25;31.15;;;;;;;6.51;98.61719;94566.85;;;;
2019/10/20 04:01:15;;;;;;;52.25;31.15;;;;;;;6.51;98.61719;94566.85;;;;
2019/10/20 04:02:18;;;;;;;52.25;31.15;;;;;;;6.51;98.61719;94566.85;;;;
2019/10/20 04:03:19;;;;;;;52.25;31.15;;;;;;;6.51;98.61719;94566.85;;;;
2019/10/20 04:04:23;;;;;;;47.95;30.35;;;;;;;6.51;98.85938;94567.25;;;;
2019/10/20 04:05:27;;;;;;;47.95;30.35;;;;;;;6.51;98.85938;94567.25;;;;
2019/10/20 04:06:28;;;;;;;47.95;30.35;;;;;;;6.51;98.85938;94567.25;;;;
2019/10/20 04:07:30;;;;;;;47.95;30.35;;;;;;;6.51;98.85938;94567.25;;;;
2019/10/20 04:08:35;;;;;;;47.95;30.35;;;;;;;6.51;98.85938;94567.25;;;;
2019/10/20 04:10:13;;;;;;;47.95;30.35;;;;;;;6.51;98.85938;94567.25;;;;
2019/10/20 04:11:19;;;;;;;47.95;30.35;;;;;;;6.51;98.85938;94567.25;;;;
2019/10/20 04:12:21;;;;;;;47.95;30.35;;;;;;;6.51;98.85938;94567.25;;;;
2019/10/20 04:13:22;;;;;;;47.95;30.35;;;;;;;6.51;98.85938;94567.25;;;;
2019/10/20 04:14:23;;;;;;;49.25001;30.4;;;;;;;6.42;98.94238;94569.55;;;;
2019/10/20 04:15:24;;;;;;;49.25001;30.4;;;;;;;6.42;98.94238;94569.55;;;;
2019/10/20 04:16:26;;;;;;;49.25001;30.4;;;;;;;6.42;98.94238;94569.55;;;;
2019/10/20 04:17:27;;;;;;;49.25001;30.4;;;;;;;6.42;98.94238;94569.55;;;;
2019/10/20 04:18:28;;;;;;;49.25001;30.4;;;;;;;6.42;98.94238;94569.55;;;;
2019/10/20 04:19:29;;;;;;;49.25001;30.4;;;;;;;6.42;98.94238;94569.55;;;;
2019/10/20 04:20:30;;;;;;;49.25001;30.4;;;;;;;6.42;98.94238;94569.55;;;;
2019/10/20 04:21:32;;;;;;;49.25001;30.4;;;;;;;6.42;98.94238;94569.55;;;;
2019/10/20 04:22:33;;;;;;;49.25001;30.4;;;;;;;6.42;98.94238;94569.55;;;;
2019/10/20 04:23:35;;;;;;;49.25001;30.4;;;;;;;6.42;98.94238;94569.55;;;;
2019/10/20 04:24:36;;;;;;;49.25001;30.4;;;;;;;6.42;98.94238;94569.55;;;;
2019/10/20 04:25:37;;;;;;;49.15;29.55;;;;;;;6.39;99.13867;94573.49;;;;
2019/10/20 04:26:38;;;;;;;49.15;29.55;;;;;;;6.39;99.13867;94573.49;;;;
2019/10/20 04:27:39;;;;;;;49.15;29.55;;;;;;;6.39;99.13867;94573.49;;;;
2019/10/20 04:28:40;;;;;;;49.15;29.55;;;;;;;6.39;99.13867;94573.49;;;;
2019/10/20 04:29:42;;;;;;;49.15;29.55;;;;;;;6.39;99.13867;94573.49;;;;
2019/10/20 04:30:43;;;;;;;49.15;29.55;;;;;;;6.39;99.13867;94573.49;;;;
2019/10/20 04:31:44;;;;;;;49.15;29.55;;;;;;;6.39;99.13867;94573.49;;;;
2019/10/20 04:32:45;;;;;;;49.15;29.55;;;;;;;6.39;99.13867;94573.49;;;;
2019/10/20 04:33:46;;;;;;;49.15;29.55;;;;;;;6.39;99.13867;94573.49;;;;
2019/10/20 04:34:48;;;;;;;49.15;29.55;;;;;;;6.39;99.13867;94573.49;;;;
2019/10/20 04:35:49;;;;;;;53.15;32.75;;;;;;;6.47;99.27148;94576.39;;;;
2019/10/20 04:36:50;;;;;;;53.15;32.75;;;;;;;6.47;99.27148;94576.39;;;;
2019/10/20 04:37:52;;;;;;;53.15;32.75;;;;;;;6.47;99.27148;94576.39;;;;
2019/10/20 04:38:53;;;;;;;53.15;32.75;;;;;;;6.47;99.27148;94576.39;;;;
2019/10/20 04:39:54;;;;;;;53.15;32.75;;;;;;;6.47;99.27148;94576.39;;;;
2019/10/20 04:40:56;;;;;;;53.15;32.75;;;;;;;6.47;99.27148;94576.39;;;;
2019/10/20 04:41:57;;;;;;;53.15;32.75;;;;;;;6.47;99.27148;94576.39;;;;
2019/10/20 04:42:58;;;;;;;53.15;32.75;;;;;;;6.47;99.27148;94576.39;;;;
2019/10/20 04:43:59;;;;;;;53.15;32.75;;;;;;;6.47;99.27148;94576.39;;;;
2019/10/20 04:45:01;;;;;;;53.15;32.75;;;;;;;6.47;99.27148;94576.39;;;;
2019/10/20 04:46:03;;;;;;;53.15;32.75;;;;;;;6.47;99.27148;94576.39;;;;
2019/10/20 04:47:04;;;;;;;71.10001;37.95;;;;;;;6.79;99.2627;94587.97;;;;
2019/10/20 04:48:06;;;;;;;71.10001;37.95;;;;;;;6.79;99.2627;94587.97;;;;
2019/10/20 04:49:07;;;;;;;71.10001;37.95;;;;;;;6.79;99.2627;94587.97;;;;
2019/10/20 04:50:09;;;;;;;71.10001;37.95;;;;;;;6.79;99.2627;94587.97;;;;
2019/10/20 04:51:11;;;;;;;71.10001;37.95;;;;;;;6.79;99.2627;94587.97;;;;
2019/10/20 04:52:12;;;;;;;71.10001;37.95;;;;;;;6.79;99.2627;94587.97;;;;
2019/10/20 04:53:13;;;;;;;71.10001;37.95;;;;;;;6.79;99.2627;94587.97;;;;
2019/10/20 04:54:14;;;;;;;71.10001;37.95;;;;;;;6.79;99.2627;94587.97;;;;
2019/10/20 04:55:16;;;;;;;71.10001;37.95;;;;;;;6.79;99.2627;94587.97;;;;
2019/10/20 04:56:17;;;;;;;71.10001;37.95;;;;;;;6.79;99.2627;94587.97;;;;
2019/10/20 04:57:19;;;;;;;131.3;40.3;;;;;;;7.02;99.14355;94577.38;;;;
2019/10/20 04:58:20;;;;;;;131.3;40.3;;;;;;;7.02;99.14355;94577.38;;;;
2019/10/20 04:59:21;;;;;;;131.3;40.3;;;;;;;7.02;99.14355;94577.38;;;;
2019/10/20 05:00:22;;;;;;;131.3;40.3;;;;;;;7.02;99.14355;94577.38;;;;
2019/10/20 05:01:24;;;;;;;131.3;40.3;;;;;;;7.02;99.14355;94577.38;;;;
2019/10/20 05:02:25;;;;;;;131.3;40.3;;;;;;;7.02;99.14355;94577.38;;;;
2019/10/20 05:03:26;;;;;;;131.3;40.3;;;;;;;7.02;99.14355;94577.38;;;;
2019/10/20 05:04:27;;;;;;;131.3;40.3;;;;;;;7.02;99.14355;94577.38;;;;
2019/10/20 05:05:28;;;;;;;131.3;40.3;;;;;;;7.02;99.14355;94577.38;;;;
2019/10/20 05:06:29;;;;;;;131.3;40.3;;;;;;;7.02;99.14355;94577.38;;;;
2019/10/20 05:07:30;;;;;;;83.09999;40.25;;;;;;;7.26;99.33398;94572.34;;;;
2019/10/20 05:08:32;;;;;;;83.09999;40.25;;;;;;;7.26;99.33398;94572.34;;;;
2019/10/20 05:09:33;;;;;;;83.09999;40.25;;;;;;;7.26;99.33398;94572.34;;;;
2019/10/20 05:10:34;;;;;;;83.09999;40.25;;;;;;;7.26;99.33398;94572.34;;;;
2019/10/20 05:11:35;;;;;;;83.09999;40.25;;;;;;;7.26;99.33398;94572.34;;;;
2019/10/20 05:12:36;;;;;;;83.09999;40.25;;;;;;;7.26;99.33398;94572.34;;;;
2019/10/20 05:13:37;;;;;;;83.09999;40.25;;;;;;;7.26;99.33398;94572.34;;;;
2019/10/20 05:14:38;;;;;;;83.09999;40.25;;;;;;;7.26;99.33398;94572.34;;;;
2019/10/20 05:15:39;;;;;;;83.09999;40.25;;;;;;;7.26;99.33398;94572.34;;;;
2019/10/20 05:16:41;;;;;;;83.09999;40.25;;;;;;;7.26;99.33398;94572.34;;;;
2019/10/20 05:17:42;;;;;;;83.09999;40.25;;;;;;;7.26;99.33398;94572.34;;;;
2019/10/20 05:18:43;;;;;;;62.90001;37.3;;;;;;;7.36;99.34766;94579.28;;;;
2019/10/20 05:19:44;;;;;;;62.90001;37.3;;;;;;;7.36;99.34766;94579.28;;;;
2019/10/20 05:20:45;;;;;;;62.90001;37.3;;;;;;;7.36;99.34766;94579.28;;;;
2019/10/20 05:21:46;;;;;;;62.90001;37.3;;;;;;;7.36;99.34766;94579.28;;;;
2019/10/20 05:22:47;;;;;;;62.90001;37.3;;;;;;;7.36;99.34766;94579.28;;;;
2019/10/20 05:23:49;;;;;;;62.90001;37.3;;;;;;;7.36;99.34766;94579.28;;;;
2019/10/20 05:24:50;;;;;;;62.90001;37.3;;;;;;;7.36;99.34766;94579.28;;;;
2019/10/20 05:25:51;;;;;;;62.90001;37.3;;;;;;;7.36;99.34766;94579.28;;;;
2019/10/20 05:26:52;;;;;;;62.90001;37.3;;;;;;;7.36;99.34766;94579.28;;;;
2019/10/20 05:27:53;;;;;;;62.90001;37.3;;;;;;;7.36;99.34766;94579.28;;;;
2019/10/20 05:28:54;;;;;;;76.55001;40.65;;;;;;;7.47;99.5;94573.1;;;;
2019/10/20 05:29:55;;;;;;;76.55001;40.65;;;;;;;7.47;99.5;94573.1;;;;
2019/10/20 05:30:57;;;;;;;76.55001;40.65;;;;;;;7.47;99.5;94573.1;;;;
2019/10/20 05:31:58;;;;;;;76.55001;40.65;;;;;;;7.47;99.5;94573.1;;;;
2019/10/20 05:32:59;;;;;;;76.55001;40.65;;;;;;;7.47;99.5;94573.1;;;;
2019/10/20 05:34:00;;;;;;;76.55001;40.65;;;;;;;7.47;99.5;94573.1;;;;
2019/10/20 05:35:01;;;;;;;76.55001;40.65;;;;;;;7.47;99.5;94573.1;;;;
2019/10/20 05:36:02;;;;;;;76.55001;40.65;;;;;;;7.47;99.5;94573.1;;;;
2019/10/20 05:37:03;;;;;;;76.55001;40.65;;;;;;;7.47;99.5;94573.1;;;;
2019/10/20 05:38:04;;;;;;;76.55001;40.65;;;;;;;7.47;99.5;94573.1;;;;
2019/10/20 05:39:05;;;;;;;76.55001;40.65;;;;;;;7.47;99.5;94573.1;;;;
2019/10/20 05:40:07;;;;;;;157.4;39.45;;;;;;;7.49;99.59668;94582.26;;;;
2019/10/20 05:41:08;;;;;;;157.4;39.45;;;;;;;7.49;99.59668;94582.26;;;;
2019/10/20 05:42:09;;;;;;;157.4;39.45;;;;;;;7.49;99.59668;94582.26;;;;
2019/10/20 05:43:10;;;;;;;157.4;39.45;;;;;;;7.49;99.59668;94582.26;;;;
2019/10/20 05:44:11;;;;;;;157.4;39.45;;;;;;;7.49;99.59668;94582.26;;;;
2019/10/20 05:45:12;;;;;;;157.4;39.45;;;;;;;7.49;99.59668;94582.26;;;;
2019/10/20 05:46:14;;;;;;;157.4;39.45;;;;;;;7.49;99.59668;94582.26;;;;
2019/10/20 05:47:15;;;;;;;157.4;39.45;;;;;;;7.49;99.59668;94582.26;;;;
2019/10/20 05:48:16;;;;;;;157.4;39.45;;;;;;;7.49;99.59668;94582.26;;;;
2019/10/20 05:49:17;;;;;;;157.4;39.45;;;;;;;7.49;99.59668;94582.26;;;;
2019/10/20 05:50:18;;;;;;;66.64999;35.35;;;;;;;7.5;99.80078;94576.26;;;;
2019/10/20 05:51:19;;;;;;;66.64999;35.35;;;;;;;7.5;99.80078;94576.26;;;;
2019/10/20 05:52:20;;;;;;;66.64999;35.35;;;;;;;7.5;99.80078;94576.26;;;;
2019/10/20 05:53:21;;;;;;;66.64999;35.35;;;;;;;7.5;99.80078;94576.26;;;;
2019/10/20 05:54:23;;;;;;;66.64999;35.35;;;;;;;7.5;99.80078;94576.26;;;;
2019/10/20 05:55:25;;;;;;;66.64999;35.35;;;;;;;7.5;99.80078;94576.26;;;;